Time;durP1;ratioP1;P1;durP2;ratioP2;P2;SDS_P1;SDS_P2;PMS_P1;PMS_P2;Temp;Humidity;BMP_temperature;BMP_pressure;BME280_temperature;BME280_humidity;BME280_pressure;Samples;Min_cycle;Max_cycle;Signal;HPM_P1;HPM_P2
2022/05/05 00:01:42;;;;;;;23.10;9.73;;;;;;;8.38;81.57;101802.97;5012145;28;20120;-76
2022/05/05 00:04:08;;;;;;;21.38;9.00;;;;;;;8.29;81.70;101804.28;5013490;28;20021;-76
2022/05/05 00:06:35;;;;;;;29.08;10.65;;;;;;;8.23;81.45;101801.91;5013040;28;20026;-76
2022/05/05 00:09:00;;;;;;;23.05;9.30;;;;;;;8.20;81.59;101808.28;5011998;28;20132;-76
2022/05/05 00:14:25;;;;;;;22.63;8.85;;;;;;;8.11;82.17;101815.88;5013222;28;20508;-76
2022/05/05 00:16:51;;;;;;;24.92;9.98;;;;;;;8.05;82.49;101809.00;5013098;28;20037;-76
2022/05/05 00:19:16;;;;;;;23.13;9.70;;;;;;;8.02;82.87;101810.03;5032045;28;20036;-76
2022/05/05 00:21:42;;;;;;;23.75;9.50;;;;;;;7.96;82.63;101810.28;5032653;28;20436;-76
2022/05/05 00:24:08;;;;;;;22.70;9.88;;;;;;;7.90;82.90;101804.38;5031738;28;20464;-76
2022/05/05 00:26:34;;;;;;;24.38;10.38;;;;;;;7.83;82.98;101809.13;5031999;28;20061;-76
2022/05/05 00:28:59;;;;;;;21.00;8.93;;;;;;;7.82;83.66;101808.28;5031443;28;20033;-76
2022/05/05 00:31:24;;;;;;;24.45;9.43;;;;;;;7.82;83.54;101802.06;5032574;28;20097;-76
2022/05/05 00:33:50;;;;;;;23.63;10.15;;;;;;;7.78;83.58;101805.81;5014716;28;20029;-76
2022/05/05 00:36:15;;;;;;;27.67;10.88;;;;;;;7.74;83.99;101809.56;5032430;28;20473;-76
2022/05/05 00:38:41;;;;;;;25.85;9.27;;;;;;;7.73;84.15;101810.50;5031283;28;20414;-76
2022/05/05 00:41:06;;;;;;;20.50;9.10;;;;;;;7.72;84.10;101809.66;5032760;28;20021;-76
2022/05/05 00:43:33;;;;;;;23.92;10.75;;;;;;;7.70;83.93;101804.38;5031256;28;20105;-76
2022/05/05 00:45:59;;;;;;;24.85;10.30;;;;;;;7.69;84.58;101801.75;5031022;28;20025;-76
2022/05/05 00:48:26;;;;;;;28.15;10.57;;;;;;;7.71;84.78;101797.19;5025337;28;20033;-76
2022/05/05 00:50:51;;;;;;;24.52;9.95;;;;;;;7.73;84.49;101805.16;5032163;28;20033;-76
2022/05/05 00:53:17;;;;;;;24.17;9.85;;;;;;;7.76;84.38;101807.69;5032319;28;20030;-76
2022/05/05 00:55:42;;;;;;;26.17;11.10;;;;;;;7.75;84.26;101796.13;5032245;28;20032;-76
2022/05/05 00:58:09;;;;;;;23.63;10.27;;;;;;;7.78;85.07;101793.28;5032235;28;20025;-76
2022/05/05 01:00:34;;;;;;;24.02;11.05;;;;;;;7.79;84.48;101794.16;5032571;28;20144;-75
2022/05/05 01:03:00;;;;;;;24.95;11.45;;;;;;;7.81;85.31;101803.84;5031884;28;20021;-75
2022/05/05 01:05:27;;;;;;;24.02;9.70;;;;;;;7.83;85.82;101802.00;5030613;28;20033;-75
2022/05/05 01:07:56;;;;;;;23.13;10.35;;;;;;;7.84;86.18;101802.84;5030314;28;20042;-75
2022/05/05 01:10:22;;;;;;;24.70;9.80;;;;;;;7.86;85.90;101809.00;5030653;28;20029;-75
2022/05/05 01:12:47;;;;;;;23.83;10.90;;;;;;;7.89;86.06;101806.16;5030562;28;20033;-75
2022/05/05 01:15:13;;;;;;;22.27;9.82;;;;;;;7.92;85.89;101805.16;5031903;28;20029;-75
2022/05/05 01:17:38;;;;;;;25.33;10.57;;;;;;;7.96;85.44;101798.72;5028626;28;20018;-75
2022/05/05 01:20:30;;;;;;;23.45;9.98;;;;;;;8.05;84.88;101803.63;5030364;28;20029;-75
2022/05/05 01:22:55;;;;;;;22.63;9.57;;;;;;;8.05;85.43;101790.25;5030280;28;20500;-75
2022/05/05 01:28:12;;;;;;;24.13;9.95;;;;;;;8.12;84.95;101791.69;5032009;28;20457;-75
2022/05/05 01:30:40;;;;;;;26.90;11.02;;;;;;;8.15;84.72;101788.00;5031514;28;20400;-75
2022/05/05 01:33:22;;;;;;;23.67;9.90;;;;;;;8.17;84.43;101797.72;5030080;28;20033;-75
2022/05/05 01:35:50;;;;;;;24.52;11.05;;;;;;;8.17;84.04;101797.72;5031326;28;20029;-75
2022/05/05 01:38:20;;;;;;;25.27;9.40;;;;;;;8.16;84.86;101793.28;5029211;28;20524;-75
2022/05/05 01:40:46;;;;;;;23.73;9.77;;;;;;;8.15;84.75;101796.03;5031613;28;20239;-75
2022/05/05 01:43:23;;;;;;;25.90;10.13;;;;;;;8.10;84.49;101790.91;5031434;28;20028;-75
2022/05/05 01:45:49;;;;;;;22.38;9.82;;;;;;;8.09;85.74;101788.31;5031317;28;20596;-75
2022/05/05 01:48:14;;;;;;;25.45;9.95;;;;;;;8.10;85.73;101792.75;5031145;28;20017;-75
2022/05/05 01:50:40;;;;;;;24.83;10.80;;;;;;;8.13;84.96;101796.13;5029924;28;20087;-75
2022/05/05 01:53:05;;;;;;;24.63;11.30;;;;;;;8.16;85.11;101792.44;5031230;28;20466;-75
2022/05/05 01:55:32;;;;;;;22.38;9.45;;;;;;;8.15;85.43;101798.72;5029834;28;20374;-75
2022/05/05 01:57:58;;;;;;;24.38;9.88;;;;;;;8.18;85.40;101801.25;5023478;28;20552;-75
2022/05/05 02:00:24;;;;;;;24.20;10.20;;;;;;;8.23;86.15;101796.56;5011520;28;20433;-75
2022/05/05 02:02:50;;;;;;;26.20;10.73;;;;;;;8.27;86.30;101802.63;5009904;28;20500;-75
2022/05/05 02:05:16;;;;;;;26.20;10.27;;;;;;;8.28;85.74;101802.53;5010017;28;20026;-75
2022/05/05 02:07:43;;;;;;;24.08;10.50;;;;;;;8.29;86.04;101798.94;5011064;28;20085;-75
2022/05/05 02:10:13;;;;;;;24.10;10.20;;;;;;;8.27;86.12;101806.16;5011435;28;20085;-75
2022/05/05 02:12:38;;;;;;;23.00;9.65;;;;;;;8.29;85.60;101806.97;5011577;28;20030;-75
2022/05/05 02:15:08;;;;;;;24.70;10.07;;;;;;;8.33;84.94;101805.88;5011424;28;20036;-75
2022/05/05 02:17:37;;;;;;;23.13;9.93;;;;;;;8.34;85.10;101804.91;5015971;28;20026;-75
2022/05/05 02:20:05;;;;;;;24.15;10.82;;;;;;;8.40;86.39;101810.00;5029740;28;20030;-75
2022/05/05 02:22:30;;;;;;;24.65;10.68;;;;;;;8.43;86.36;101803.59;5030686;28;20017;-75
2022/05/05 02:24:55;;;;;;;26.25;10.30;;;;;;;8.43;85.69;101806.28;5031143;28;20041;-75
2022/05/05 02:27:21;;;;;;;24.08;10.45;;;;;;;8.45;86.10;101812.47;5030867;28;20039;-75
2022/05/05 02:29:47;;;;;;;22.25;10.05;;;;;;;8.47;86.09;101810.59;5030996;28;20113;-75
2022/05/05 02:32:13;;;;;;;25.00;12.13;;;;;;;8.49;83.83;101808.72;5029247;28;20477;-75
2022/05/05 02:34:38;;;;;;;23.23;10.10;;;;;;;8.56;85.68;101814.63;5030833;28;20083;-75
2022/05/05 02:39:48;;;;;;;24.50;11.02;;;;;;;8.60;85.11;101816.22;5031095;28;20067;-75
2022/05/05 02:42:13;;;;;;;24.55;10.73;;;;;;;8.61;84.72;101814.38;5030737;28;20052;-75
2022/05/05 02:44:38;;;;;;;25.20;11.60;;;;;;;8.60;85.44;101813.53;5030801;28;20033;-75
2022/05/05 02:47:04;;;;;;;23.15;11.05;;;;;;;8.60;85.24;101805.50;5025047;28;20409;-75
2022/05/05 02:49:29;;;;;;;24.55;10.88;;;;;;;8.59;83.85;101806.44;5031904;28;20021;-75
2022/05/05 02:51:55;;;;;;;23.67;10.23;;;;;;;8.58;84.40;101812.75;5032906;28;20119;-75
2022/05/05 02:57:04;;;;;;;27.35;11.65;;;;;;;8.57;85.80;101811.00;5034749;28;20048;-75
2022/05/05 02:59:29;;;;;;;22.55;10.43;;;;;;;8.55;85.07;101812.88;5033169;28;20029;-75
2022/05/05 03:01:54;;;;;;;24.52;11.05;;;;;;;8.55;85.34;101804.84;5034275;28;20033;-75
2022/05/05 03:04:20;;;;;;;26.45;12.07;;;;;;;8.55;84.81;101808.41;5033381;28;20462;-75
2022/05/05 03:06:45;;;;;;;24.63;11.32;;;;;;;8.55;86.20;101805.72;5032668;28;20486;-75
2022/05/05 03:09:10;;;;;;;23.48;10.98;;;;;;;8.54;85.79;101805.81;5034027;28;20053;-75
2022/05/05 03:11:35;;;;;;;25.30;11.15;;;;;;;8.51;85.90;101805.97;5034296;28;20512;-75
2022/05/05 03:14:01;;;;;;;23.88;10.65;;;;;;;8.48;86.44;101806.13;5034110;28;20030;-75
2022/05/05 03:16:26;;;;;;;26.25;11.93;;;;;;;8.46;85.93;101802.63;5034030;28;20469;-75
2022/05/05 03:18:51;;;;;;;22.73;11.45;;;;;;;8.48;85.70;101800.75;5030938;28;20064;-75
2022/05/05 03:21:17;;;;;;;26.65;12.05;;;;;;;8.48;84.94;101806.13;5032563;28;20123;-75
2022/05/05 03:23:42;;;;;;;23.33;10.70;;;;;;;8.49;84.50;101807.81;5016343;28;20120;-75
2022/05/05 03:26:07;;;;;;;23.08;10.10;;;;;;;8.48;85.79;101806.13;5032587;28;20484;-75
2022/05/05 03:28:32;;;;;;;23.00;10.52;;;;;;;8.46;84.82;101808.84;5033926;28;20068;-75
2022/05/05 03:30:58;;;;;;;26.10;11.85;;;;;;;8.44;85.58;101809.84;5033883;28;20029;-75
2022/05/05 03:33:23;;;;;;;28.38;13.18;;;;;;;8.43;86.16;101811.63;5033747;28;20028;-75
2022/05/05 03:35:48;;;;;;;26.88;12.82;;;;;;;8.46;85.93;101810.66;5033750;28;20104;-75
2022/05/05 03:38:13;;;;;;;28.40;12.82;;;;;;;8.46;85.96;101814.19;5032353;28;20662;-75
2022/05/05 03:40:39;;;;;;;28.48;12.60;;;;;;;8.46;85.88;101814.19;5033683;28;20064;-75
2022/05/05 03:43:04;;;;;;;26.05;12.88;;;;;;;8.47;86.22;101815.09;5033780;28;20052;-75
2022/05/05 03:45:29;;;;;;;26.63;11.85;;;;;;;8.45;85.90;101816.94;5015724;28;20029;-75
2022/05/05 03:47:55;;;;;;;25.52;11.23;;;;;;;8.46;85.51;101816.03;5032000;28;20376;-75
2022/05/05 03:50:20;;;;;;;24.98;12.05;;;;;;;8.47;85.38;101815.09;5033660;28;20032;-75
2022/05/05 03:52:45;;;;;;;24.83;11.18;;;;;;;8.52;86.13;101818.38;5033151;28;20041;-75
2022/05/05 03:55:11;;;;;;;25.35;10.85;;;;;;;8.55;87.39;101813.78;5032413;28;20392;-75
2022/05/05 03:57:36;;;;;;;24.33;11.27;;;;;;;8.58;86.20;101823.47;5028414;28;20025;-75
2022/05/05 04:00:03;;;;;;;25.13;11.88;;;;;;;8.63;86.06;101829.47;5013398;28;20457;-75
2022/05/05 04:02:29;;;;;;;26.23;11.65;;;;;;;8.64;85.23;101833.88;5011205;28;20378;-75
2022/05/05 04:04:54;;;;;;;25.70;11.77;;;;;;;8.67;86.22;101835.56;5013427;28;20022;-75
2022/05/05 04:07:20;;;;;;;27.13;12.07;;;;;;;8.67;86.22;101835.56;5013005;28;20568;-75
2022/05/05 04:09:45;;;;;;;25.77;13.02;;;;;;;8.66;85.07;101841.84;5013675;28;20041;-75
2022/05/05 04:12:10;;;;;;;28.08;12.48;;;;;;;8.68;85.68;101837.25;5012001;28;20039;-75
2022/05/05 04:14:36;;;;;;;24.15;11.60;;;;;;;8.70;86.29;101838.94;5013385;28;20466;-75
2022/05/05 04:17:01;;;;;;;25.02;13.30;;;;;;;8.69;86.09;101839.88;5013512;28;20037;-75
2022/05/05 04:19:27;;;;;;;27.42;12.38;;;;;;;8.72;86.55;101846.91;5032916;28;20025;-75
2022/05/05 04:21:53;;;;;;;25.30;11.63;;;;;;;8.69;85.00;101845.22;5032697;28;20029;-75
2022/05/05 04:24:19;;;;;;;24.92;12.05;;;;;;;8.71;86.04;101846.03;5031637;28;20576;-75
2022/05/05 04:26:45;;;;;;;25.85;12.45;;;;;;;8.73;86.42;101852.19;5031359;28;20032;-75
2022/05/05 04:29:10;;;;;;;28.27;12.73;;;;;;;8.73;85.68;101849.50;5032895;28;20056;-75
2022/05/05 04:31:36;;;;;;;27.52;12.50;;;;;;;8.75;86.84;101852.09;5032583;28;20033;-75
2022/05/05 04:34:03;;;;;;;27.17;13.30;;;;;;;8.74;85.13;101853.03;5032571;28;20033;-75
2022/05/05 04:36:34;;;;;;;28.52;13.70;;;;;;;8.77;85.37;101855.59;5032722;28;20108;-75
2022/05/05 04:39:00;;;;;;;25.38;12.45;;;;;;;8.82;84.92;101860.72;5032563;28;20036;-75
2022/05/05 04:41:25;;;;;;;26.63;11.50;;;;;;;8.83;84.54;101854.38;5031262;28;20029;-75
2022/05/05 04:43:50;;;;;;;25.13;11.57;;;;;;;8.86;85.40;101852.44;5032582;28;20035;-75
2022/05/05 04:46:15;;;;;;;27.33;12.48;;;;;;;8.88;84.93;101852.38;5032309;28;20041;-75
2022/05/05 04:48:41;;;;;;;25.58;12.85;;;;;;;8.92;86.23;101859.31;5027622;28;20037;-75
2022/05/05 04:51:06;;;;;;;23.30;10.85;;;;;;;8.92;86.71;101862.00;5031049;28;20023;-75
2022/05/05 04:53:31;;;;;;;28.45;12.50;;;;;;;8.91;86.31;101853.06;5030846;28;20073;-75
2022/05/05 04:55:56;;;;;;;25.88;12.55;;;;;;;8.92;85.55;101857.50;5030985;28;20436;-75
2022/05/05 04:58:22;;;;;;;29.83;11.70;;;;;;;8.93;86.20;101863.72;5032409;28;20029;-75
2022/05/05 05:00:47;;;;;;;25.63;12.20;;;;;;;8.92;85.92;101868.22;5032061;28;20021;-75
2022/05/05 05:05:56;;;;;;;26.27;14.25;;;;;;;8.90;85.81;101875.47;5032314;28;20177;-75
2022/05/05 05:08:21;;;;;;;26.63;12.50;;;;;;;8.86;86.68;101873.03;5031950;28;20049;-75
2022/05/05 05:10:46;;;;;;;25.20;11.73;;;;;;;8.84;87.23;101875.75;5030751;28;20029;-75
2022/05/05 05:13:12;;;;;;;24.17;12.00;;;;;;;8.85;87.48;101877.50;5031677;28;20030;-75
2022/05/05 05:15:37;;;;;;;25.98;11.55;;;;;;;8.83;87.06;101881.19;5031738;28;20033;-75
2022/05/05 05:18:02;;;;;;;23.60;11.75;;;;;;;8.80;87.15;101887.59;5028765;28;20029;-75
2022/05/05 05:20:28;;;;;;;25.58;11.90;;;;;;;8.78;87.94;101881.44;5031948;28;20025;-75
2022/05/05 05:22:53;;;;;;;26.67;12.90;;;;;;;8.79;88.26;101885.00;5031739;28;20025;-75
2022/05/05 05:25:18;;;;;;;25.67;12.65;;;;;;;8.76;88.13;101887.84;5031813;28;20031;-75
2022/05/05 05:27:43;;;;;;;23.98;12.05;;;;;;;8.76;88.28;101890.50;5031644;28;20021;-75
2022/05/05 05:30:09;;;;;;;27.08;13.35;;;;;;;8.79;88.43;101891.22;5030395;28;20033;-75
2022/05/05 05:32:34;;;;;;;26.35;13.38;;;;;;;8.81;87.98;101896.50;5031397;28;20035;-75
2022/05/05 05:34:59;;;;;;;28.13;13.18;;;;;;;8.80;88.62;101890.28;5030201;28;20481;-75
2022/05/05 05:37:25;;;;;;;27.52;13.75;;;;;;;8.83;88.27;101897.28;5031426;28;20391;-75
2022/05/05 05:39:50;;;;;;;28.45;13.23;;;;;;;8.86;87.71;101907.88;5030208;28;20057;-75
2022/05/05 05:42:15;;;;;;;28.48;15.40;;;;;;;8.90;88.30;101904.97;5030130;28;20046;-75
2022/05/05 05:44:40;;;;;;;27.27;12.48;;;;;;;8.94;88.53;101900.31;5030170;28;20453;-75
2022/05/05 05:47:07;;;;;;;27.02;12.40;;;;;;;8.99;88.96;101903.66;5029860;28;20397;-75
2022/05/05 05:49:33;;;;;;;27.88;14.15;;;;;;;9.02;87.49;101906.16;5030215;28;20030;-75
2022/05/05 05:51:58;;;;;;;31.45;14.30;;;;;;;9.09;87.17;101902.25;5031161;28;20109;-75
2022/05/05 05:54:23;;;;;;;30.73;13.25;;;;;;;9.16;87.40;101909.97;5031335;28;20030;-75
2022/05/05 05:56:48;;;;;;;30.23;14.85;;;;;;;9.24;88.05;101907.78;5031221;28;20017;-75
2022/05/05 05:59:14;;;;;;;34.72;15.15;;;;;;;9.31;86.63;101909.19;5029863;28;20024;-75
2022/05/05 06:04:23;;;;;;;31.83;14.82;;;;;;;9.48;87.65;101910.16;5031285;28;20127;-75
2022/05/05 06:06:49;;;;;;;28.35;14.82;;;;;;;9.53;86.78;101911.66;5024275;28;20033;-75
2022/05/05 06:09:15;;;;;;;30.75;14.65;;;;;;;9.62;83.89;101921.03;5011189;28;20038;-75
2022/05/05 06:11:41;;;;;;;27.23;14.15;;;;;;;9.70;84.42;101915.25;5011558;28;20397;-75
2022/05/05 06:14:06;;;;;;;31.98;15.90;;;;;;;9.77;83.60;101919.38;5011656;28;20022;-75
2022/05/05 06:16:31;;;;;;;30.10;13.68;;;;;;;9.84;83.92;101923.47;5011299;28;20029;-75
2022/05/05 06:18:56;;;;;;;28.67;13.93;;;;;;;9.91;82.59;101919.50;5025948;28;20021;-75
2022/05/05 06:21:22;;;;;;;32.10;15.30;;;;;;;9.98;80.13;101925.41;5030924;28;20068;-75
2022/05/05 06:23:47;;;;;;;30.30;13.82;;;;;;;10.03;80.32;101920.66;5031162;28;20033;-75
2022/05/05 06:26:13;;;;;;;29.80;15.48;;;;;;;10.10;80.48;101916.69;5035075;28;20025;-75
2022/05/05 06:28:38;;;;;;;29.52;13.98;;;;;;;10.20;78.34;101929.63;5035009;28;20445;-75
2022/05/05 06:31:05;;;;;;;30.63;13.88;;;;;;;10.29;76.46;101916.56;5035176;28;20053;-75
2022/05/05 06:33:30;;;;;;;33.10;13.95;;;;;;;10.40;74.80;101921.34;5035026;28;20026;-75
2022/05/05 06:35:55;;;;;;;28.42;14.15;;;;;;;10.50;74.20;101929.78;5034639;28;20091;-75
2022/05/05 06:38:20;;;;;;;26.98;13.07;;;;;;;10.61;74.57;101923.78;5033646;28;20036;-75
2022/05/05 06:40:46;;;;;;;27.75;14.60;;;;;;;10.71;75.66;101929.53;5033678;28;20018;-75
2022/05/05 06:43:11;;;;;;;27.20;13.70;;;;;;;10.81;75.51;101934.28;5034938;28;20071;-75
2022/05/05 06:45:36;;;;;;;30.05;15.95;;;;;;;10.92;73.80;101933.69;5034934;28;20033;-75
2022/05/05 06:48:02;;;;;;;36.13;16.88;;;;;;;11.04;73.51;101931.22;5029859;28;20022;-75
2022/05/05 06:50:28;;;;;;;34.17;17.27;;;;;;;11.15;74.57;101934.16;5033419;28;20029;-75
2022/05/05 06:52:54;;;;;;;33.20;17.13;;;;;;;11.27;74.06;101935.28;5034446;28;20436;-75
2022/05/05 06:55:19;;;;;;;31.90;16.98;;;;;;;11.36;73.98;101934.72;5034602;28;20025;-75
2022/05/05 06:57:46;;;;;;;32.42;18.85;;;;;;;11.47;74.43;101934.09;5034566;28;20656;-75
2022/05/05 07:00:11;;;;;;;32.83;17.73;;;;;;;11.58;74.02;101938.81;5034581;28;20060;-75
2022/05/05 07:02:37;;;;;;;39.22;21.10;;;;;;;11.66;74.90;101936.56;5034459;28;20021;-75
2022/05/05 07:07:46;;;;;;;45.45;29.15;;;;;;;11.81;75.07;101943.69;5033145;28;20060;-75
2022/05/05 07:12:55;;;;;;;51.60;35.60;;;;;;;11.96;74.73;101952.72;5034302;28;20028;-75
2022/05/05 07:15:21;;;;;;;49.65;31.38;;;;;;;12.05;73.86;101957.53;5033359;28;20053;-75
2022/05/05 07:17:48;;;;;;;51.28;32.35;;;;;;;12.16;74.92;101956.84;5032327;28;20021;-75
2022/05/05 07:20:13;;;;;;;51.78;31.17;;;;;;;12.32;75.59;101962.13;5034298;28;20037;-75
2022/05/05 07:22:40;;;;;;;48.40;31.70;;;;;;;12.41;74.17;101964.25;5033982;28;20060;-75
2022/05/05 07:25:06;;;;;;;49.03;32.42;;;;;;;12.54;74.45;101966.19;5032668;28;20489;-75
2022/05/05 07:27:31;;;;;;;51.47;33.90;;;;;;;12.68;74.37;101965.28;5033954;28;20104;-75
2022/05/05 07:29:56;;;;;;;52.92;33.40;;;;;;;12.80;74.03;101961.81;5016210;28;20029;-75
2022/05/05 07:32:22;;;;;;;47.70;30.60;;;;;;;12.94;72.97;101960.88;5032700;28;20087;-75
2022/05/05 07:34:47;;;;;;;52.10;33.65;;;;;;;13.05;71.97;101965.59;5032530;28;20084;-75
2022/05/05 07:37:12;;;;;;;57.05;34.30;;;;;;;13.14;72.15;101962.28;5033601;28;20314;-75
2022/05/05 07:39:38;;;;;;;53.67;34.50;;;;;;;13.26;71.31;101966.84;5032481;28;20100;-75
2022/05/05 07:42:03;;;;;;;51.78;32.13;;;;;;;13.35;72.82;101965.41;5033833;28;20542;-75
2022/05/05 07:44:29;;;;;;;48.08;31.90;;;;;;;13.44;71.47;101969.31;5032532;28;20033;-75
2022/05/05 07:46:55;;;;;;;45.33;28.63;;;;;;;13.54;70.49;101970.41;5033477;28;20021;-75
2022/05/05 07:49:21;;;;;;;46.95;31.40;;;;;;;13.67;70.46;101970.44;5033581;28;20393;-75
2022/05/05 07:51:46;;;;;;;49.92;30.80;;;;;;;13.75;68.53;101973.50;5031949;28;20044;-75
2022/05/05 07:56:55;;;;;;;48.17;30.45;;;;;;;13.97;68.36;101978.28;5033752;28;20412;-75
2022/05/05 07:59:21;;;;;;;43.80;29.77;;;;;;;14.04;67.16;101977.84;5033484;28;20389;-75
2022/05/05 08:01:46;;;;;;;47.63;29.83;;;;;;;14.06;66.48;101978.63;5033295;28;20436;-75
2022/05/05 08:04:11;;;;;;;49.65;28.65;;;;;;;14.08;67.14;101976.66;5031873;28;20032;-75
2022/05/05 08:06:37;;;;;;;44.90;31.20;;;;;;;14.09;67.45;101978.41;5028160;28;20053;-75
2022/05/05 08:09:02;;;;;;;45.58;29.88;;;;;;;14.08;67.26;101984.78;5012091;28;20045;-75
2022/05/05 08:11:28;;;;;;;44.63;28.77;;;;;;;14.06;67.74;101978.63;5013563;28;20405;-75
2022/05/05 08:13:54;;;;;;;46.75;29.17;;;;;;;14.07;68.78;101993.84;5013305;28;20101;-75
2022/05/05 08:16:19;;;;;;;40.33;24.77;;;;;;;14.04;65.81;101988.66;5013234;28;20026;-75
2022/05/05 08:18:44;;;;;;;41.28;23.92;;;;;;;14.01;65.58;101991.59;5026432;28;20120;-75
2022/05/05 08:21:10;;;;;;;40.20;24.90;;;;;;;14.01;66.10;101983.47;5033242;28;20037;-75
2022/05/05 08:23:36;;;;;;;38.47;22.80;;;;;;;13.99;66.86;101992.53;5032880;28;20402;-75
2022/05/05 08:28:45;;;;;;;38.22;23.65;;;;;;;14.08;65.72;101996.44;5033672;28;20043;-75
2022/05/05 08:31:10;;;;;;;39.22;23.85;;;;;;;14.10;64.31;101999.94;5032811;28;20494;-75
2022/05/05 08:33:38;;;;;;;40.67;24.75;;;;;;;14.11;65.65;102000.78;5031221;28;20029;-75
2022/05/05 08:36:05;;;;;;;40.80;22.33;;;;;;;14.16;68.20;101996.78;5031257;28;20048;-75
2022/05/05 08:38:31;;;;;;;48.95;30.92;;;;;;;14.21;69.27;102003.72;5031442;28;20029;-75
2022/05/05 08:40:57;;;;;;;46.20;31.67;;;;;;;14.18;68.96;102001.22;5031300;28;20075;-75
2022/05/05 08:43:22;;;;;;;50.95;34.72;;;;;;;14.21;69.96;102004.56;5031278;28;20029;-75
2022/05/05 08:45:48;;;;;;;48.40;31.63;;;;;;;14.23;69.56;102007.16;5032436;28;20029;-75
2022/05/05 08:48:14;;;;;;;47.45;31.40;;;;;;;14.22;67.77;102014.41;5027141;28;20029;-75
2022/05/05 08:50:44;;;;;;;50.03;33.17;;;;;;;14.25;68.12;102007.94;5032599;28;20029;-75
2022/05/05 08:53:14;;;;;;;50.47;30.92;;;;;;;14.30;68.18;102014.72;5032488;28;20450;-75
2022/05/05 08:55:40;;;;;;;52.92;33.50;;;;;;;14.37;68.69;102017.88;5031098;28;20026;-75
2022/05/05 08:58:05;;;;;;;51.67;30.98;;;;;;;14.41;69.08;102013.13;5032456;28;20032;-75
2022/05/05 09:00:30;;;;;;;43.42;29.02;;;;;;;14.48;68.40;102017.09;5030859;28;20041;-75
2022/05/05 09:03:00;;;;;;;43.67;29.25;;;;;;;14.58;68.59;102015.47;5030989;28;20029;-75
2022/05/05 09:05:44;;;;;;;46.22;28.70;;;;;;;14.66;68.56;102020.38;5032553;28;20033;-75
2022/05/05 09:08:34;;;;;;;47.88;27.83;;;;;;;14.72;67.29;102021.78;5032023;28;20489;-75
2022/05/05 09:11:05;;;;;;;43.08;28.23;;;;;;;14.78;68.11;102019.47;5031944;28;20048;-75
2022/05/05 09:13:36;;;;;;;44.80;29.17;;;;;;;14.83;67.26;102025.44;5032024;28;20051;-75
2022/05/05 09:16:03;;;;;;;45.22;29.10;;;;;;;14.90;65.67;102024.97;5030853;28;20042;-75
2022/05/05 09:18:31;;;;;;;45.78;28.27;;;;;;;14.93;65.52;102022.91;5031857;28;20108;-75
2022/05/05 09:20:58;;;;;;;47.08;29.15;;;;;;;14.94;66.21;102015.66;5031715;28;20091;-75
2022/05/05 09:23:32;;;;;;;48.13;30.02;;;;;;;14.97;65.69;102032.53;5031689;28;20414;-75
2022/05/05 09:25:59;;;;;;;47.50;30.08;;;;;;;14.99;66.79;102032.41;5031828;28;20151;-75
2022/05/05 09:28:31;;;;;;;47.22;30.92;;;;;;;15.00;66.84;102035.00;5031644;28;20040;-75
2022/05/05 09:31:04;;;;;;;49.20;31.13;;;;;;;15.02;67.14;102032.19;5030175;28;20031;-75
2022/05/05 09:33:33;;;;;;;47.10;29.63;;;;;;;15.01;66.41;102028.63;5030196;28;20120;-75
2022/05/05 09:35:59;;;;;;;45.38;29.75;;;;;;;15.07;68.65;102034.59;5028568;28;20026;-75
2022/05/05 09:38:45;;;;;;;44.20;29.90;;;;;;;15.05;65.31;102041.94;5011728;28;20029;-75
2022/05/05 09:41:11;;;;;;;51.03;32.22;;;;;;;15.03;65.06;102037.50;5011717;28;20149;-75
2022/05/05 09:43:37;;;;;;;52.97;29.88;;;;;;;15.10;65.62;102035.22;5011801;28;20501;-75
2022/05/05 09:46:21;;;;;;;46.25;29.98;;;;;;;15.17;66.98;102039.19;4993968;28;20521;-75
2022/05/05 09:48:48;;;;;;;47.47;31.42;;;;;;;15.24;64.84;102044.16;5024940;28;20481;-75
2022/05/05 09:51:16;;;;;;;51.10;29.83;;;;;;;15.31;65.70;102035.44;5030028;28;20473;-75
2022/05/05 09:59:21;;;;;;;47.58;30.17;;;;;;;15.55;64.03;102048.16;5030866;28;20404;-75
2022/05/05 10:01:50;;;;;;;47.78;30.38;;;;;;;15.55;63.63;102051.72;5029522;28;20091;-75
2022/05/05 10:04:18;;;;;;;49.88;31.38;;;;;;;15.61;64.33;102052.22;5029926;28;20053;-75
2022/05/05 10:06:44;;;;;;;48.03;31.35;;;;;;;15.65;64.80;102049.19;5023797;28;20038;-75
2022/05/05 10:09:16;;;;;;;47.20;30.55;;;;;;;15.71;64.71;102050.53;5011315;28;20055;-75
2022/05/05 10:11:41;;;;;;;47.90;33.65;;;;;;;15.73;62.19;102052.16;5010120;28;20029;-75
2022/05/05 10:14:11;;;;;;;51.60;31.60;;;;;;;15.77;62.70;102057.34;5011580;28;20041;-75
2022/05/05 10:16:38;;;;;;;46.53;32.58;;;;;;;15.78;62.69;102046.41;5011305;28;20448;-75
2022/05/05 10:19:04;;;;;;;45.25;30.35;;;;;;;15.83;62.77;102046.09;4994059;28;20026;-75
2022/05/05 10:21:50;;;;;;;42.95;30.33;;;;;;;15.81;62.93;102045.34;5030988;28;20025;-75
2022/05/05 10:24:22;;;;;;;50.88;32.13;;;;;;;15.87;62.49;102053.88;5031280;28;20435;-75
2022/05/05 10:26:51;;;;;;;47.08;32.53;;;;;;;15.91;62.45;102049.06;5031053;28;20060;-75
2022/05/05 10:29:33;;;;;;;49.85;30.67;;;;;;;15.89;63.28;102051.03;5031053;28;20029;-75
2022/05/05 10:32:17;;;;;;;48.83;30.50;;;;;;;15.91;62.20;102049.06;5029430;28;20029;-75
2022/05/05 10:34:45;;;;;;;44.85;30.27;;;;;;;15.91;61.80;102049.06;5031032;28;20026;-75
2022/05/05 10:37:17;;;;;;;43.95;31.85;;;;;;;15.96;61.54;102051.41;5030635;28;20025;-75
2022/05/05 10:39:48;;;;;;;46.58;30.77;;;;;;;15.97;60.35;102047.72;5029698;28;20032;-75
2022/05/05 10:42:19;;;;;;;43.30;31.83;;;;;;;15.98;61.25;102047.63;5030867;28;20025;-75
2022/05/05 10:45:05;;;;;;;41.08;31.00;;;;;;;16.05;60.53;102053.44;5029507;28;20025;-75
2022/05/05 10:47:52;;;;;;;45.45;30.65;;;;;;;16.11;60.38;102054.81;5029265;28;20436;-75
2022/05/05 10:50:30;;;;;;;41.92;29.88;;;;;;;16.19;61.13;102053.25;5030737;28;20453;-75
2022/05/05 10:52:57;;;;;;;45.85;31.35;;;;;;;16.26;60.69;102050.88;5030372;28;20026;-75
2022/05/05 10:55:26;;;;;;;45.97;29.02;;;;;;;16.28;59.47;102054.34;5030982;28;20040;-75
2022/05/05 10:57:52;;;;;;;41.67;27.83;;;;;;;16.34;57.83;102056.59;5011454;28;20346;-75
2022/05/05 11:00:22;;;;;;;45.95;28.88;;;;;;;16.33;57.69;102052.13;5009681;28;20393;-75
2022/05/05 11:03:03;;;;;;;42.45;29.08;;;;;;;16.36;58.19;102056.47;5010751;28;20105;-75
2022/05/05 11:05:35;;;;;;;42.92;29.45;;;;;;;16.43;59.47;102053.13;5010671;28;20048;-75
2022/05/05 11:08:10;;;;;;;39.40;27.13;;;;;;;16.43;57.81;102055.84;5009165;28;20053;-75
2022/05/05 11:10:38;;;;;;;44.03;30.42;;;;;;;16.53;58.13;102055.09;5012460;28;20038;-75
2022/05/05 11:13:04;;;;;;;40.53;29.00;;;;;;;16.60;59.96;102057.25;5014479;28;20478;-75
2022/05/05 11:21:33;;;;;;;40.60;29.85;;;;;;;16.73;58.76;102056.25;5034326;28;20051;-75
2022/05/05 11:24:00;;;;;;;42.00;30.20;;;;;;;16.74;57.06;102053.41;5034099;28;20075;-75
2022/05/05 11:26:26;;;;;;;45.90;30.13;;;;;;;16.79;55.78;102050.31;5033864;28;20386;-75
2022/05/05 11:28:53;;;;;;;44.03;30.40;;;;;;;16.82;56.71;102049.22;5033961;28;20108;-75
2022/05/05 11:31:20;;;;;;;37.78;27.75;;;;;;;16.96;56.91;102051.69;5032565;28;20429;-75
2022/05/05 11:34:13;;;;;;;41.03;29.60;;;;;;;17.02;57.55;102047.63;5032609;28;20113;-75
2022/05/05 11:36:41;;;;;;;37.65;25.55;;;;;;;17.05;57.23;102053.66;5022225;28;20044;-75
2022/05/05 11:39:09;;;;;;;41.00;27.17;;;;;;;17.18;56.91;102053.53;5014141;28;20036;-75
2022/05/05 11:41:35;;;;;;;40.00;25.38;;;;;;;17.22;56.41;102049.56;5014070;28;20501;-75
2022/05/05 11:44:17;;;;;;;43.20;28.63;;;;;;;17.27;56.86;102046.47;5012616;28;20022;-75
2022/05/05 11:46:44;;;;;;;39.53;27.38;;;;;;;17.35;56.41;102049.41;5012822;28;20053;-75
2022/05/05 11:49:10;;;;;;;41.55;28.90;;;;;;;17.32;52.94;102041.53;5031558;28;20489;-75
2022/05/05 11:51:36;;;;;;;41.95;28.80;;;;;;;17.30;52.93;102048.91;5033485;28;20064;-75
2022/05/05 11:54:10;;;;;;;39.47;27.00;;;;;;;17.30;53.62;102040.78;5032026;28;20035;-75